sensor_id;sensor_type;location;lat;lon;timestamp;P1;durP1;ratioP1;P2;durP2;ratioP2
51194;SDS011;37259;49.972;19.850;2023-02-28T00:00:41;14.5;;;8.2;;
51194;SDS011;37259;49.972;19.850;2023-02-28T00:01:41;14.5;;;8.2;;
51194;SDS011;37259;49.972;19.850;2023-02-28T00:02:41;14.5;;;8.2;;
51194;SDS011;37259;49.972;19.850;2023-02-28T00:03:41;14.5;;;8.2;;
51194;SDS011;37259;49.972;19.850;2023-02-28T00:04:41;14.5;;;8.2;;
51194;SDS011;37259;49.972;19.850;2023-02-28T00:05:41;14.5;;;8.2;;
51194;SDS011;37259;49.972;19.850;2023-02-28T00:06:41;14.5;;;8.2;;
51194;SDS011;37259;49.972;19.850;2023-02-28T00:07:41;14.5;;;8.2;;
51194;SDS011;37259;49.972;19.850;2023-02-28T00:08:41;14.5;;;8.2;;
51194;SDS011;37259;49.972;19.850;2023-02-28T00:09:41;14.5;;;8.2;;
51194;SDS011;37259;49.972;19.850;2023-02-28T00:10:41;14.5;;;8.2;;
51194;SDS011;37259;49.972;19.850;2023-02-28T00:11:41;14.5;;;8.2;;
51194;SDS011;37259;49.972;19.850;2023-02-28T00:12:41;14.5;;;8.2;;
51194;SDS011;37259;49.972;19.850;2023-02-28T00:13:42;14.5;;;8.2;;
51194;SDS011;37259;49.972;19.850;2023-02-28T00:14:41;14.5;;;8.2;;
51194;SDS011;37259;49.972;19.850;2023-02-28T00:15:41;14.5;;;8.2;;
51194;SDS011;37259;49.972;19.850;2023-02-28T00:16:41;14.5;;;8.2;;
51194;SDS011;37259;49.972;19.850;2023-02-28T00:17:41;14.5;;;8.2;;
51194;SDS011;37259;49.972;19.850;2023-02-28T00:18:41;14.5;;;8.2;;
51194;SDS011;37259;49.972;19.850;2023-02-28T00:19:41;14.5;;;8.2;;
51194;SDS011;37259;49.972;19.850;2023-02-28T00:20:41;14.5;;;8.2;;
51194;SDS011;37259;49.972;19.850;2023-02-28T00:21:41;14.5;;;8.2;;
51194;SDS011;37259;49.972;19.850;2023-02-28T00:22:42;12.8;;;7.6;;
51194;SDS011;37259;49.972;19.850;2023-02-28T00:23:41;12.8;;;7.6;;
51194;SDS011;37259;49.972;19.850;2023-02-28T00:24:41;12.8;;;7.6;;
51194;SDS011;37259;49.972;19.850;2023-02-28T00:25:41;12.8;;;7.6;;
51194;SDS011;37259;49.972;19.850;2023-02-28T00:26:41;12.8;;;7.6;;
51194;SDS011;37259;49.972;19.850;2023-02-28T00:27:42;12.8;;;7.6;;
51194;SDS011;37259;49.972;19.850;2023-02-28T00:28:41;12.8;;;7.6;;
51194;SDS011;37259;49.972;19.850;2023-02-28T00:29:41;12.8;;;7.6;;
51194;SDS011;37259;49.972;19.850;2023-02-28T00:30:41;12.8;;;7.6;;
51194;SDS011;37259;49.972;19.850;2023-02-28T00:31:41;12.8;;;7.6;;
51194;SDS011;37259;49.972;19.850;2023-02-28T00:32:41;12.8;;;7.6;;
51194;SDS011;37259;49.972;19.850;2023-02-28T00:33:41;12.8;;;7.6;;
51194;SDS011;37259;49.972;19.850;2023-02-28T00:34:41;12.8;;;7.6;;
51194;SDS011;37259;49.972;19.850;2023-02-28T00:35:41;12.8;;;7.6;;
51194;SDS011;37259;49.972;19.850;2023-02-28T00:36:41;12.8;;;7.6;;
51194;SDS011;37259;49.972;19.850;2023-02-28T00:37:41;12.8;;;7.6;;
51194;SDS011;37259;49.972;19.850;2023-02-28T00:38:41;12.8;;;7.6;;
51194;SDS011;37259;49.972;19.850;2023-02-28T00:39:41;12.8;;;7.6;;
51194;SDS011;37259;49.972;19.850;2023-02-28T00:40:41;12.8;;;7.6;;
51194;SDS011;37259;49.972;19.850;2023-02-28T00:41:41;12.8;;;7.6;;
51194;SDS011;37259;49.972;19.850;2023-02-28T00:42:41;12.8;;;7.6;;
51194;SDS011;37259;49.972;19.850;2023-02-28T00:43:41;12.8;;;7.6;;
51194;SDS011;37259;49.972;19.850;2023-02-28T00:44:41;12.8;;;7.6;;
51194;SDS011;37259;49.972;19.850;2023-02-28T00:45:41;12.8;;;7.6;;
51194;SDS011;37259;49.972;19.850;2023-02-28T00:46:41;12.8;;;7.6;;
51194;SDS011;37259;49.972;19.850;2023-02-28T00:47:41;12.8;;;7.6;;
51194;SDS011;37259;49.972;19.850;2023-02-28T00:48:41;12.8;;;7.6;;
51194;SDS011;37259;49.972;19.850;2023-02-28T00:49:41;12.8;;;7.6;;
51194;SDS011;37259;49.972;19.850;2023-02-28T00:50:41;12.8;;;7.6;;
51194;SDS011;37259;49.972;19.850;2023-02-28T00:51:41;12.8;;;7.6;;
51194;SDS011;37259;49.972;19.850;2023-02-28T00:52:41;15.8;;;8.1;;
51194;SDS011;37259;49.972;19.850;2023-02-28T00:53:41;15.8;;;8.1;;
51194;SDS011;37259;49.972;19.850;2023-02-28T00:54:41;15.8;;;8.1;;
51194;SDS011;37259;49.972;19.850;2023-02-28T00:55:41;15.8;;;8.1;;
51194;SDS011;37259;49.972;19.850;2023-02-28T00:56:41;15.8;;;8.1;;
51194;SDS011;37259;49.972;19.850;2023-02-28T00:57:41;15.8;;;8.1;;
51194;SDS011;37259;49.972;19.850;2023-02-28T00:58:41;15.8;;;8.1;;
51194;SDS011;37259;49.972;19.850;2023-02-28T00:59:41;15.8;;;8.1;;
51194;SDS011;37259;49.972;19.850;2023-02-28T01:00:41;15.8;;;8.1;;
51194;SDS011;37259;49.972;19.850;2023-02-28T01:01:41;15.8;;;8.1;;
51194;SDS011;37259;49.972;19.850;2023-02-28T01:02:41;15.8;;;8.1;;
51194;SDS011;37259;49.972;19.850;2023-02-28T01:03:41;15.8;;;8.1;;
51194;SDS011;37259;49.972;19.850;2023-02-28T01:04:41;15.8;;;8.1;;
51194;SDS011;37259;49.972;19.850;2023-02-28T01:05:41;15.8;;;8.1;;
51194;SDS011;37259;49.972;19.850;2023-02-28T01:06:41;15.8;;;8.1;;
51194;SDS011;37259;49.972;19.850;2023-02-28T01:07:41;15.8;;;8.1;;
51194;SDS011;37259;49.972;19.850;2023-02-28T01:08:41;15.8;;;8.1;;
51194;SDS011;37259;49.972;19.850;2023-02-28T01:09:41;15.8;;;8.1;;
51194;SDS011;37259;49.972;19.850;2023-02-28T01:10:41;15.8;;;8.1;;
51194;SDS011;37259;49.972;19.850;2023-02-28T01:11:41;15.8;;;8.1;;
51194;SDS011;37259;49.972;19.850;2023-02-28T01:12:41;15.8;;;8.1;;
51194;SDS011;37259;49.972;19.850;2023-02-28T01:13:41;15.8;;;8.1;;
51194;SDS011;37259;49.972;19.850;2023-02-28T01:14:41;15.8;;;8.1;;
51194;SDS011;37259;49.972;19.850;2023-02-28T01:15:43;15.8;;;8.1;;
51194;SDS011;37259;49.972;19.850;2023-02-28T01:16:41;15.8;;;8.1;;
51194;SDS011;37259;49.972;19.850;2023-02-28T01:17:41;15.8;;;8.1;;
51194;SDS011;37259;49.972;19.850;2023-02-28T01:18:41;15.8;;;8.1;;
51194;SDS011;37259;49.972;19.850;2023-02-28T01:19:41;15.8;;;8.1;;
51194;SDS011;37259;49.972;19.850;2023-02-28T01:20:41;15.8;;;8.1;;
51194;SDS011;37259;49.972;19.850;2023-02-28T01:21:41;15.8;;;8.1;;
51194;SDS011;37259;49.972;19.850;2023-02-28T01:22:41;11.6;;;6;;
51194;SDS011;37259;49.972;19.850;2023-02-28T01:23:41;11.6;;;6;;
51194;SDS011;37259;49.972;19.850;2023-02-28T01:24:41;11.6;;;6;;
51194;SDS011;37259;49.972;19.850;2023-02-28T01:25:41;11.6;;;6;;
51194;SDS011;37259;49.972;19.850;2023-02-28T01:26:41;11.6;;;6;;
51194;SDS011;37259;49.972;19.850;2023-02-28T01:27:41;11.6;;;6;;
51194;SDS011;37259;49.972;19.850;2023-02-28T01:28:41;11.6;;;6;;
51194;SDS011;37259;49.972;19.850;2023-02-28T01:29:41;11.6;;;6;;
51194;SDS011;37259;49.972;19.850;2023-02-28T01:30:41;11.6;;;6;;
51194;SDS011;37259;49.972;19.850;2023-02-28T01:31:41;11.6;;;6;;
51194;SDS011;37259;49.972;19.850;2023-02-28T01:32:41;11.6;;;6;;
51194;SDS011;37259;49.972;19.850;2023-02-28T01:33:41;11.6;;;6;;
51194;SDS011;37259;49.972;19.850;2023-02-28T01:34:41;11.6;;;6;;
51194;SDS011;37259;49.972;19.850;2023-02-28T01:35:41;11.6;;;6;;
51194;SDS011;37259;49.972;19.850;2023-02-28T01:36:41;11.6;;;6;;
51194;SDS011;37259;49.972;19.850;2023-02-28T01:37:41;11.6;;;6;;
51194;SDS011;37259;49.972;19.850;2023-02-28T01:38:41;11.6;;;6;;
51194;SDS011;37259;49.972;19.850;2023-02-28T01:39:41;11.6;;;6;;
51194;SDS011;37259;49.972;19.850;2023-02-28T01:40:41;11.6;;;6;;
51194;SDS011;37259;49.972;19.850;2023-02-28T01:41:41;11.6;;;6;;
51194;SDS011;37259;49.972;19.850;2023-02-28T01:42:41;11.6;;;6;;
51194;SDS011;37259;49.972;19.850;2023-02-28T01:43:58;11.6;;;6;;
51194;SDS011;37259;49.972;19.850;2023-02-28T01:44:58;11.6;;;6;;
51194;SDS011;37259;49.972;19.850;2023-02-28T01:45:41;11.6;;;6;;
51194;SDS011;37259;49.972;19.850;2023-02-28T01:46:41;11.6;;;6;;
51194;SDS011;37259;49.972;19.850;2023-02-28T01:47:41;11.6;;;6;;
51194;SDS011;37259;49.972;19.850;2023-02-28T01:48:42;11.6;;;6;;
51194;SDS011;37259;49.972;19.850;2023-02-28T01:49:41;11.6;;;6;;
51194;SDS011;37259;49.972;19.850;2023-02-28T01:50:42;11.6;;;6;;
51194;SDS011;37259;49.972;19.850;2023-02-28T01:51:41;11.6;;;6;;
51194;SDS011;37259;49.972;19.850;2023-02-28T01:52:41;11.6;;;6.4;;
51194;SDS011;37259;49.972;19.850;2023-02-28T01:53:42;11.6;;;6.4;;
51194;SDS011;37259;49.972;19.850;2023-02-28T01:54:41;11.6;;;6.4;;
51194;SDS011;37259;49.972;19.850;2023-02-28T01:55:41;11.6;;;6.4;;
51194;SDS011;37259;49.972;19.850;2023-02-28T01:56:42;11.6;;;6.4;;
51194;SDS011;37259;49.972;19.850;2023-02-28T01:57:43;11.6;;;6.4;;
51194;SDS011;37259;49.972;19.850;2023-02-28T01:58:41;11.6;;;6.4;;
51194;SDS011;37259;49.972;19.850;2023-02-28T01:59:42;11.6;;;6.4;;
51194;SDS011;37259;49.972;19.850;2023-02-28T02:00:41;11.6;;;6.4;;
51194;SDS011;37259;49.972;19.850;2023-02-28T02:01:41;11.6;;;6.4;;
51194;SDS011;37259;49.972;19.850;2023-02-28T02:02:42;11.6;;;6.4;;
51194;SDS011;37259;49.972;19.850;2023-02-28T02:03:41;11.6;;;6.4;;
51194;SDS011;37259;49.972;19.850;2023-02-28T02:04:45;11.6;;;6.4;;
51194;SDS011;37259;49.972;19.850;2023-02-28T02:05:41;11.6;;;6.4;;
51194;SDS011;37259;49.972;19.850;2023-02-28T02:06:42;11.6;;;6.4;;
51194;SDS011;37259;49.972;19.850;2023-02-28T02:07:42;11.6;;;6.4;;
51194;SDS011;37259;49.972;19.850;2023-02-28T02:08:41;11.6;;;6.4;;
51194;SDS011;37259;49.972;19.850;2023-02-28T02:09:41;11.6;;;6.4;;
51194;SDS011;37259;49.972;19.850;2023-02-28T02:10:42;11.6;;;6.4;;
51194;SDS011;37259;49.972;19.850;2023-02-28T02:11:42;11.6;;;6.4;;
51194;SDS011;37259;49.972;19.850;2023-02-28T02:12:46;11.6;;;6.4;;
51194;SDS011;37259;49.972;19.850;2023-02-28T02:13:45;11.6;;;6.4;;
51194;SDS011;37259;49.972;19.850;2023-02-28T02:14:43;11.6;;;6.4;;
51194;SDS011;37259;49.972;19.850;2023-02-28T02:15:42;11.6;;;6.4;;
51194;SDS011;37259;49.972;19.850;2023-02-28T02:16:45;11.6;;;6.4;;
51194;SDS011;37259;49.972;19.850;2023-02-28T02:17:41;11.6;;;6.4;;
51194;SDS011;37259;49.972;19.850;2023-02-28T02:18:43;11.6;;;6.4;;
51194;SDS011;37259;49.972;19.850;2023-02-28T02:20:05;11.6;;;6.4;;
51194;SDS011;37259;49.972;19.850;2023-02-28T02:20:46;11.6;;;6.4;;
51194;SDS011;37259;49.972;19.850;2023-02-28T02:21:47;11.6;;;6.4;;
51194;SDS011;37259;49.972;19.850;2023-02-28T02:23:49;12.9;;;7.5;;
51194;SDS011;37259;49.972;19.850;2023-02-28T02:24:51;12.9;;;7.5;;
51194;SDS011;37259;49.972;19.850;2023-02-28T02:25:41;12.9;;;7.5;;
51194;SDS011;37259;49.972;19.850;2023-02-28T02:26:44;12.9;;;7.5;;
51194;SDS011;37259;49.972;19.850;2023-02-28T02:27:47;12.9;;;7.5;;
51194;SDS011;37259;49.972;19.850;2023-02-28T02:28:46;12.9;;;7.5;;
51194;SDS011;37259;49.972;19.850;2023-02-28T02:29:45;12.9;;;7.5;;
51194;SDS011;37259;49.972;19.850;2023-02-28T02:30:44;12.9;;;7.5;;
51194;SDS011;37259;49.972;19.850;2023-02-28T02:31:51;12.9;;;7.5;;
51194;SDS011;37259;49.972;19.850;2023-02-28T02:32:44;12.9;;;7.5;;
51194;SDS011;37259;49.972;19.850;2023-02-28T02:33:57;12.9;;;7.5;;
51194;SDS011;37259;49.972;19.850;2023-02-28T02:34:43;12.9;;;7.5;;
51194;SDS011;37259;49.972;19.850;2023-02-28T02:35:42;12.9;;;7.5;;
51194;SDS011;37259;49.972;19.850;2023-02-28T02:36:42;12.9;;;7.5;;
51194;SDS011;37259;49.972;19.850;2023-02-28T02:37:42;12.9;;;7.5;;
51194;SDS011;37259;49.972;19.850;2023-02-28T02:38:42;12.9;;;7.5;;
51194;SDS011;37259;49.972;19.850;2023-02-28T02:39:44;12.9;;;7.5;;
51194;SDS011;37259;49.972;19.850;2023-02-28T02:40:42;12.9;;;7.5;;
51194;SDS011;37259;49.972;19.850;2023-02-28T02:41:43;12.9;;;7.5;;
51194;SDS011;37259;49.972;19.850;2023-02-28T02:42:44;12.9;;;7.5;;
51194;SDS011;37259;49.972;19.850;2023-02-28T02:43:44;12.9;;;7.5;;
51194;SDS011;37259;49.972;19.850;2023-02-28T02:44:42;12.9;;;7.5;;
51194;SDS011;37259;49.972;19.850;2023-02-28T02:45:42;12.9;;;7.5;;
51194;SDS011;37259;49.972;19.850;2023-02-28T02:46:42;12.9;;;7.5;;
51194;SDS011;37259;49.972;19.850;2023-02-28T02:47:41;12.9;;;7.5;;
51194;SDS011;37259;49.972;19.850;2023-02-28T02:48:41;12.9;;;7.5;;
51194;SDS011;37259;49.972;19.850;2023-02-28T02:49:42;12.9;;;7.5;;
51194;SDS011;37259;49.972;19.850;2023-02-28T02:50:42;12.9;;;7.5;;
51194;SDS011;37259;49.972;19.850;2023-02-28T02:51:41;12.9;;;7.5;;
51194;SDS011;37259;49.972;19.850;2023-02-28T02:52:42;10.5;;;6;;
51194;SDS011;37259;49.972;19.850;2023-02-28T02:53:42;10.5;;;6;;
51194;SDS011;37259;49.972;19.850;2023-02-28T02:54:41;10.5;;;6;;
51194;SDS011;37259;49.972;19.850;2023-02-28T02:55:42;10.5;;;6;;
51194;SDS011;37259;49.972;19.850;2023-02-28T02:56:42;10.5;;;6;;
51194;SDS011;37259;49.972;19.850;2023-02-28T02:57:44;10.5;;;6;;
51194;SDS011;37259;49.972;19.850;2023-02-28T02:58:41;10.5;;;6;;
51194;SDS011;37259;49.972;19.850;2023-02-28T02:59:41;10.5;;;6;;
51194;SDS011;37259;49.972;19.850;2023-02-28T03:00:42;10.5;;;6;;
51194;SDS011;37259;49.972;19.850;2023-02-28T03:01:41;10.5;;;6;;
51194;SDS011;37259;49.972;19.850;2023-02-28T03:02:41;10.5;;;6;;
51194;SDS011;37259;49.972;19.850;2023-02-28T03:03:41;10.5;;;6;;
51194;SDS011;37259;49.972;19.850;2023-02-28T03:04:42;10.5;;;6;;
51194;SDS011;37259;49.972;19.850;2023-02-28T03:05:42;10.5;;;6;;
51194;SDS011;37259;49.972;19.850;2023-02-28T03:06:41;10.5;;;6;;
51194;SDS011;37259;49.972;19.850;2023-02-28T03:07:41;10.5;;;6;;
51194;SDS011;37259;49.972;19.850;2023-02-28T03:08:41;10.5;;;6;;
51194;SDS011;37259;49.972;19.850;2023-02-28T03:09:49;10.5;;;6;;
51194;SDS011;37259;49.972;19.850;2023-02-28T03:10:41;10.5;;;6;;
51194;SDS011;37259;49.972;19.850;2023-02-28T03:11:41;10.5;;;6;;
51194;SDS011;37259;49.972;19.850;2023-02-28T03:12:45;10.5;;;6;;
51194;SDS011;37259;49.972;19.850;2023-02-28T03:13:46;10.5;;;6;;
51194;SDS011;37259;49.972;19.850;2023-02-28T03:14:43;10.5;;;6;;
51194;SDS011;37259;49.972;19.850;2023-02-28T03:15:44;10.5;;;6;;
51194;SDS011;37259;49.972;19.850;2023-02-28T03:16:59;10.5;;;6;;
51194;SDS011;37259;49.972;19.850;2023-02-28T03:17:47;10.5;;;6;;
51194;SDS011;37259;49.972;19.850;2023-02-28T03:18:43;10.5;;;6;;
51194;SDS011;37259;49.972;19.850;2023-02-28T03:19:45;10.5;;;6;;
51194;SDS011;37259;49.972;19.850;2023-02-28T03:20:44;10.5;;;6;;
51194;SDS011;37259;49.972;19.850;2023-02-28T03:21:43;10.5;;;6;;
51194;SDS011;37259;49.972;19.850;2023-02-28T03:22:45;10.8;;;5.4;;
51194;SDS011;37259;49.972;19.850;2023-02-28T03:23:42;10.8;;;5.4;;
51194;SDS011;37259;49.972;19.850;2023-02-28T03:24:43;10.8;;;5.4;;
51194;SDS011;37259;49.972;19.850;2023-02-28T03:25:45;10.8;;;5.4;;
51194;SDS011;37259;49.972;19.850;2023-02-28T03:26:42;10.8;;;5.4;;
51194;SDS011;37259;49.972;19.850;2023-02-28T03:27:42;10.8;;;5.4;;
51194;SDS011;37259;49.972;19.850;2023-02-28T03:28:42;10.8;;;5.4;;
51194;SDS011;37259;49.972;19.850;2023-02-28T03:29:42;10.8;;;5.4;;
51194;SDS011;37259;49.972;19.850;2023-02-28T03:30:42;10.8;;;5.4;;
51194;SDS011;37259;49.972;19.850;2023-02-28T03:31:43;10.8;;;5.4;;
51194;SDS011;37259;49.972;19.850;2023-02-28T03:32:42;10.8;;;5.4;;
51194;SDS011;37259;49.972;19.850;2023-02-28T03:33:42;10.8;;;5.4;;
51194;SDS011;37259;49.972;19.850;2023-02-28T03:34:41;10.8;;;5.4;;
51194;SDS011;37259;49.972;19.850;2023-02-28T03:35:42;10.8;;;5.4;;
51194;SDS011;37259;49.972;19.850;2023-02-28T03:36:42;10.8;;;5.4;;
51194;SDS011;37259;49.972;19.850;2023-02-28T03:37:42;10.8;;;5.4;;
51194;SDS011;37259;49.972;19.850;2023-02-28T03:38:42;10.8;;;5.4;;
51194;SDS011;37259;49.972;19.850;2023-02-28T03:39:42;10.8;;;5.4;;
51194;SDS011;37259;49.972;19.850;2023-02-28T03:40:42;10.8;;;5.4;;
51194;SDS011;37259;49.972;19.850;2023-02-28T03:41:42;10.8;;;5.4;;
51194;SDS011;37259;49.972;19.850;2023-02-28T03:42:42;10.8;;;5.4;;
51194;SDS011;37259;49.972;19.850;2023-02-28T03:43:42;10.8;;;5.4;;
51194;SDS011;37259;49.972;19.850;2023-02-28T03:44:42;10.8;;;5.4;;
51194;SDS011;37259;49.972;19.850;2023-02-28T03:45:41;10.8;;;5.4;;
51194;SDS011;37259;49.972;19.850;2023-02-28T03:46:42;10.8;;;5.4;;
51194;SDS011;37259;49.972;19.850;2023-02-28T03:47:42;10.8;;;5.4;;
51194;SDS011;37259;49.972;19.850;2023-02-28T03:48:42;10.8;;;5.4;;
51194;SDS011;37259;49.972;19.850;2023-02-28T03:49:42;10.8;;;5.4;;
51194;SDS011;37259;49.972;19.850;2023-02-28T03:50:42;10.8;;;5.4;;
51194;SDS011;37259;49.972;19.850;2023-02-28T03:51:41;10.8;;;5.4;;
51194;SDS011;37259;49.972;19.850;2023-02-28T03:52:42;6.9;;;4.8;;
51194;SDS011;37259;49.972;19.850;2023-02-28T03:53:42;6.9;;;4.8;;
51194;SDS011;37259;49.972;19.850;2023-02-28T03:54:42;6.9;;;4.8;;
51194;SDS011;37259;49.972;19.850;2023-02-28T03:55:42;6.9;;;4.8;;
51194;SDS011;37259;49.972;19.850;2023-02-28T03:56:42;6.9;;;4.8;;
51194;SDS011;37259;49.972;19.850;2023-02-28T03:57:43;6.9;;;4.8;;
51194;SDS011;37259;49.972;19.850;2023-02-28T03:58:42;6.9;;;4.8;;
51194;SDS011;37259;49.972;19.850;2023-02-28T03:59:42;6.9;;;4.8;;
51194;SDS011;37259;49.972;19.850;2023-02-28T04:00:43;6.9;;;4.8;;
51194;SDS011;37259;49.972;19.850;2023-02-28T04:01:42;6.9;;;4.8;;
51194;SDS011;37259;49.972;19.850;2023-02-28T04:02:41;6.9;;;4.8;;
51194;SDS011;37259;49.972;19.850;2023-02-28T04:03:41;6.9;;;4.8;;
51194;SDS011;37259;49.972;19.850;2023-02-28T04:04:41;6.9;;;4.8;;
51194;SDS011;37259;49.972;19.850;2023-02-28T04:05:50;6.9;;;4.8;;
51194;SDS011;37259;49.972;19.850;2023-02-28T04:06:41;6.9;;;4.8;;
51194;SDS011;37259;49.972;19.850;2023-02-28T04:07:41;6.9;;;4.8;;
51194;SDS011;37259;49.972;19.850;2023-02-28T04:08:41;6.9;;;4.8;;
51194;SDS011;37259;49.972;19.850;2023-02-28T04:09:41;6.9;;;4.8;;
51194;SDS011;37259;49.972;19.850;2023-02-28T04:10:41;6.9;;;4.8;;
51194;SDS011;37259;49.972;19.850;2023-02-28T04:11:42;6.9;;;4.8;;
51194;SDS011;37259;49.972;19.850;2023-02-28T04:12:41;6.9;;;4.8;;
51194;SDS011;37259;49.972;19.850;2023-02-28T04:13:41;6.9;;;4.8;;
51194;SDS011;37259;49.972;19.850;2023-02-28T04:14:41;6.9;;;4.8;;
51194;SDS011;37259;49.972;19.850;2023-02-28T04:15:41;6.9;;;4.8;;
51194;SDS011;37259;49.972;19.850;2023-02-28T04:16:42;6.9;;;4.8;;
51194;SDS011;37259;49.972;19.850;2023-02-28T04:17:41;6.9;;;4.8;;
51194;SDS011;37259;49.972;19.850;2023-02-28T04:18:41;6.9;;;4.8;;
51194;SDS011;37259;49.972;19.850;2023-02-28T04:19:41;6.9;;;4.8;;
51194;SDS011;37259;49.972;19.850;2023-02-28T04:20:41;6.9;;;4.8;;
51194;SDS011;37259;49.972;19.850;2023-02-28T04:21:42;6.9;;;4.8;;
51194;SDS011;37259;49.972;19.850;2023-02-28T04:22:41;15.1;;;6.8;;
51194;SDS011;37259;49.972;19.850;2023-02-28T04:23:41;15.1;;;6.8;;
51194;SDS011;37259;49.972;19.850;2023-02-28T04:24:41;15.1;;;6.8;;
51194;SDS011;37259;49.972;19.850;2023-02-28T04:25:41;15.1;;;6.8;;
51194;SDS011;37259;49.972;19.850;2023-02-28T04:26:42;15.1;;;6.8;;
51194;SDS011;37259;49.972;19.850;2023-02-28T04:27:41;15.1;;;6.8;;
51194;SDS011;37259;49.972;19.850;2023-02-28T04:28:41;15.1;;;6.8;;
51194;SDS011;37259;49.972;19.850;2023-02-28T04:29:41;15.1;;;6.8;;
51194;SDS011;37259;49.972;19.850;2023-02-28T04:30:41;15.1;;;6.8;;
51194;SDS011;37259;49.972;19.850;2023-02-28T04:31:41;15.1;;;6.8;;
51194;SDS011;37259;49.972;19.850;2023-02-28T04:32:41;15.1;;;6.8;;
51194;SDS011;37259;49.972;19.850;2023-02-28T04:33:41;15.1;;;6.8;;
51194;SDS011;37259;49.972;19.850;2023-02-28T04:34:41;15.1;;;6.8;;
51194;SDS011;37259;49.972;19.850;2023-02-28T04:35:41;15.1;;;6.8;;
51194;SDS011;37259;49.972;19.850;2023-02-28T04:36:41;15.1;;;6.8;;
51194;SDS011;37259;49.972;19.850;2023-02-28T04:37:41;15.1;;;6.8;;
51194;SDS011;37259;49.972;19.850;2023-02-28T04:38:41;15.1;;;6.8;;
51194;SDS011;37259;49.972;19.850;2023-02-28T04:39:41;15.1;;;6.8;;
51194;SDS011;37259;49.972;19.850;2023-02-28T04:40:41;15.1;;;6.8;;
51194;SDS011;37259;49.972;19.850;2023-02-28T04:41:41;15.1;;;6.8;;
51194;SDS011;37259;49.972;19.850;2023-02-28T04:42:41;15.1;;;6.8;;
51194;SDS011;37259;49.972;19.850;2023-02-28T04:43:41;15.1;;;6.8;;
51194;SDS011;37259;49.972;19.850;2023-02-28T04:44:41;15.1;;;6.8;;
51194;SDS011;37259;49.972;19.850;2023-02-28T04:45:41;15.1;;;6.8;;
51194;SDS011;37259;49.972;19.850;2023-02-28T04:46:41;15.1;;;6.8;;
51194;SDS011;37259;49.972;19.850;2023-02-28T04:47:41;15.1;;;6.8;;
51194;SDS011;37259;49.972;19.850;2023-02-28T04:48:41;15.1;;;6.8;;
51194;SDS011;37259;49.972;19.850;2023-02-28T04:49:41;15.1;;;6.8;;
51194;SDS011;37259;49.972;19.850;2023-02-28T04:50:41;15.1;;;6.8;;
51194;SDS011;37259;49.972;19.850;2023-02-28T04:51:41;12;;;6.6;;
51194;SDS011;37259;49.972;19.850;2023-02-28T04:52:41;12;;;6.6;;
51194;SDS011;37259;49.972;19.850;2023-02-28T04:53:41;12;;;6.6;;
51194;SDS011;37259;49.972;19.850;2023-02-28T04:54:41;12;;;6.6;;
51194;SDS011;37259;49.972;19.850;2023-02-28T04:55:41;12;;;6.6;;
51194;SDS011;37259;49.972;19.850;2023-02-28T04:56:41;12;;;6.6;;
51194;SDS011;37259;49.972;19.850;2023-02-28T04:57:41;12;;;6.6;;
51194;SDS011;37259;49.972;19.850;2023-02-28T04:58:41;12;;;6.6;;
51194;SDS011;37259;49.972;19.850;2023-02-28T04:59:41;12;;;6.6;;
51194;SDS011;37259;49.972;19.850;2023-02-28T05:00:41;12;;;6.6;;
51194;SDS011;37259;49.972;19.850;2023-02-28T05:01:44;12;;;6.6;;
51194;SDS011;37259;49.972;19.850;2023-02-28T05:02:41;12;;;6.6;;
51194;SDS011;37259;49.972;19.850;2023-02-28T05:03:41;12;;;6.6;;
51194;SDS011;37259;49.972;19.850;2023-02-28T05:04:41;12;;;6.6;;
51194;SDS011;37259;49.972;19.850;2023-02-28T05:05:41;12;;;6.6;;
51194;SDS011;37259;49.972;19.850;2023-02-28T05:06:41;12;;;6.6;;
51194;SDS011;37259;49.972;19.850;2023-02-28T05:07:41;12;;;6.6;;
51194;SDS011;37259;49.972;19.850;2023-02-28T05:08:41;12;;;6.6;;
51194;SDS011;37259;49.972;19.850;2023-02-28T05:09:41;12;;;6.6;;
51194;SDS011;37259;49.972;19.850;2023-02-28T05:10:41;12;;;6.6;;
51194;SDS011;37259;49.972;19.850;2023-02-28T05:11:41;12;;;6.6;;
51194;SDS011;37259;49.972;19.850;2023-02-28T05:12:41;12;;;6.6;;
51194;SDS011;37259;49.972;19.850;2023-02-28T05:13:41;12;;;6.6;;
51194;SDS011;37259;49.972;19.850;2023-02-28T05:14:41;12;;;6.6;;
51194;SDS011;37259;49.972;19.850;2023-02-28T05:15:41;12;;;6.6;;
51194;SDS011;37259;49.972;19.850;2023-02-28T05:16:41;12;;;6.6;;
51194;SDS011;37259;49.972;19.850;2023-02-28T05:17:41;12;;;6.6;;
51194;SDS011;37259;49.972;19.850;2023-02-28T05:18:41;12;;;6.6;;
51194;SDS011;37259;49.972;19.850;2023-02-28T05:19:41;12;;;6.6;;
51194;SDS011;37259;49.972;19.850;2023-02-28T05:20:41;12;;;6.6;;
51194;SDS011;37259;49.972;19.850;2023-02-28T05:21:41;10.6;;;6.5;;
51194;SDS011;37259;49.972;19.850;2023-02-28T05:22:42;10.6;;;6.5;;
51194;SDS011;37259;49.972;19.850;2023-02-28T05:23:41;10.6;;;6.5;;
51194;SDS011;37259;49.972;19.850;2023-02-28T05:24:41;10.6;;;6.5;;
51194;SDS011;37259;49.972;19.850;2023-02-28T05:25:41;10.6;;;6.5;;
51194;SDS011;37259;49.972;19.850;2023-02-28T05:26:42;10.6;;;6.5;;
51194;SDS011;37259;49.972;19.850;2023-02-28T05:27:41;10.6;;;6.5;;
51194;SDS011;37259;49.972;19.850;2023-02-28T05:28:41;10.6;;;6.5;;
51194;SDS011;37259;49.972;19.850;2023-02-28T05:29:41;10.6;;;6.5;;
51194;SDS011;37259;49.972;19.850;2023-02-28T05:30:41;10.6;;;6.5;;
51194;SDS011;37259;49.972;19.850;2023-02-28T05:31:41;10.6;;;6.5;;
51194;SDS011;37259;49.972;19.850;2023-02-28T05:32:41;10.6;;;6.5;;
51194;SDS011;37259;49.972;19.850;2023-02-28T05:33:41;10.6;;;6.5;;
51194;SDS011;37259;49.972;19.850;2023-02-28T05:34:41;10.6;;;6.5;;
51194;SDS011;37259;49.972;19.850;2023-02-28T05:35:41;10.6;;;6.5;;
51194;SDS011;37259;49.972;19.850;2023-02-28T05:36:41;10.6;;;6.5;;
51194;SDS011;37259;49.972;19.850;2023-02-28T05:37:41;10.6;;;6.5;;
51194;SDS011;37259;49.972;19.850;2023-02-28T05:38:41;10.6;;;6.5;;
51194;SDS011;37259;49.972;19.850;2023-02-28T05:39:41;10.6;;;6.5;;
51194;SDS011;37259;49.972;19.850;2023-02-28T05:40:41;10.6;;;6.5;;
51194;SDS011;37259;49.972;19.850;2023-02-28T05:41:42;10.6;;;6.5;;
51194;SDS011;37259;49.972;19.850;2023-02-28T05:42:41;10.6;;;6.5;;
51194;SDS011;37259;49.972;19.850;2023-02-28T05:43:41;10.6;;;6.5;;
51194;SDS011;37259;49.972;19.850;2023-02-28T05:44:41;10.6;;;6.5;;
51194;SDS011;37259;49.972;19.850;2023-02-28T05:45:41;10.6;;;6.5;;
51194;SDS011;37259;49.972;19.850;2023-02-28T05:46:41;10.6;;;6.5;;
51194;SDS011;37259;49.972;19.850;2023-02-28T05:47:41;10.6;;;6.5;;
51194;SDS011;37259;49.972;19.850;2023-02-28T05:48:41;10.6;;;6.5;;
51194;SDS011;37259;49.972;19.850;2023-02-28T05:49:41;10.6;;;6.5;;
51194;SDS011;37259;49.972;19.850;2023-02-28T05:50:41;10.6;;;6.5;;
51194;SDS011;37259;49.972;19.850;2023-02-28T05:51:41;12.2;;;7.1;;
51194;SDS011;37259;49.972;19.850;2023-02-28T05:52:41;12.2;;;7.1;;
51194;SDS011;37259;49.972;19.850;2023-02-28T05:53:41;12.2;;;7.1;;
51194;SDS011;37259;49.972;19.850;2023-02-28T05:54:41;12.2;;;7.1;;
51194;SDS011;37259;49.972;19.850;2023-02-28T05:55:41;12.2;;;7.1;;
51194;SDS011;37259;49.972;19.850;2023-02-28T05:56:41;12.2;;;7.1;;
51194;SDS011;37259;49.972;19.850;2023-02-28T05:57:41;12.2;;;7.1;;
51194;SDS011;37259;49.972;19.850;2023-02-28T05:58:41;12.2;;;7.1;;
51194;SDS011;37259;49.972;19.850;2023-02-28T05:59:41;12.2;;;7.1;;
51194;SDS011;37259;49.972;19.850;2023-02-28T06:00:41;12.2;;;7.1;;
51194;SDS011;37259;49.972;19.850;2023-02-28T06:01:42;12.2;;;7.1;;
51194;SDS011;37259;49.972;19.850;2023-02-28T06:02:41;12.2;;;7.1;;
51194;SDS011;37259;49.972;19.850;2023-02-28T06:03:41;12.2;;;7.1;;
51194;SDS011;37259;49.972;19.850;2023-02-28T06:04:42;12.2;;;7.1;;
51194;SDS011;37259;49.972;19.850;2023-02-28T06:05:41;12.2;;;7.1;;